Pagrindinis puslapis
METAR-TAF:

METAR-TAF

Oro uostai :

Stavangeris, Norvegija

platuma: 58-53N, ilguma: 005-38E, Aukštis: 0 m

Dabartinis oras

Ataskaita buvo paskelbta 21 minutes, ne 04:50 UTC
Vėjas 3 kt iš Pietų/Pietryčių
Temperatūra 4°C
Drėgmė 100%
Slėgis 1024 hPa
Matomumas 10 km arba daugiau
nėra debesų žemiau 1500 m ir nėra kamuolinių lietaus debesų

METAR: ENZV 070450Z 15003KT CAVOK 04/04 Q1024 NOSIG

Laikas: 07:11 (05:11 UTC)

Prognozė

Prognozė galioja nuo 07 metu 00 UTC su 07 metu 24 UTC
Vėjas 5 kt nuo kintamojo kryptimis
Matomumas 10 km arba daugiau
Mažai debesys ne aukštis 1000 ft
Su prošvaistėmis ne aukštis 2000 ft
Tikimybė 30%
nuo 07 metu 03 UTC su 07 metu 07 UTC
Matomumas: 0500 m
ne aukštis 200 ft
rūkas
Tapsmas
nuo 07 metu 10 UTC su 07 metu 12 UTC
Vėjas 10 kt iš Vakarų/Pietvakarių
Tapsmas
nuo 07 metu 15 UTC su 07 metu 18 UTC
Vėjas 12 kt iš Pietų

TAF: ENZV 0700/0724 VRB05KT 9999 FEW010 BKN020 PROB30 0703/0707 0500 FG VV002 BECMG 0710/0712 24010KT BECMG 0715/0718 18012KT

Orai ataskaitas ir orų prognozės (METAR, TAF).

turimą stotys yra geltonos ir raudonos taškus žemėlapyje.

Perkelti pele per norėdami pamatyti stoties vardą.

Tada spustelėkite, norėdami matyti oro stebėjimo ir prognozės.

Norėdami pakeisti žemėlapį: spustelėkite ant žalios mygtukų su juodo kryžiaus žemyn,; žalią mygtuką su brūkšneliu, jei norite nutolinti; arba žalių rodyklių gretimoms žemėlapius.


METAR-TAF: